createdAt,value
2019-02-18T00:01:25.414Z,33.13
2019-02-18T00:03:53.924Z,34.98
2019-02-18T00:06:22.826Z,34.48
2019-02-18T00:08:51.394Z,36.73
2019-02-18T00:11:20.058Z,33.00
2019-02-18T00:13:48.538Z,32.93
2019-02-18T00:16:17.122Z,31.33
2019-02-18T00:18:46.194Z,31.37
2019-02-18T00:21:14.715Z,31.47
2019-02-18T00:23:43.245Z,30.95
2019-02-18T00:26:11.767Z,31.75
2019-02-18T00:28:40.854Z,30.85
2019-02-18T00:31:09.442Z,27.88
2019-02-18T00:33:38.522Z,29.45
2019-02-18T00:36:07.030Z,27.45
2019-02-18T00:38:35.554Z,25.90
2019-02-18T00:41:04.074Z,27.00
2019-02-18T00:43:32.593Z,27.05
2019-02-18T00:46:01.143Z,26.65
2019-02-18T00:48:29.954Z,29.23
2019-02-18T00:50:58.482Z,26.40
2019-02-18T00:53:26.990Z,26.62
2019-02-18T00:55:55.838Z,26.35
2019-02-18T00:58:24.923Z,27.45
2019-02-18T01:00:53.450Z,28.15
2019-02-18T01:03:21.963Z,27.13
2019-02-18T01:05:50.490Z,27.52
2019-02-18T01:08:18.994Z,28.23
2019-02-18T01:10:47.604Z,27.32
2019-02-18T01:13:17.787Z,29.00
2019-02-18T01:15:46.306Z,26.33
2019-02-18T01:18:14.902Z,28.80
2019-02-18T01:20:44.506Z,28.15
2019-02-18T01:23:13.086Z,26.40
2019-02-18T01:25:42.154Z,27.75
2019-02-18T01:28:10.687Z,27.93
2019-02-18T01:30:39.210Z,30.08
2019-02-18T01:33:07.756Z,29.12
2019-02-18T01:35:36.298Z,31.07
2019-02-18T01:38:05.193Z,29.18
2019-02-18T01:40:34.002Z,32.60
2019-02-18T01:43:02.514Z,32.20
2019-02-18T01:45:31.282Z,34.05
2019-02-18T01:47:59.801Z,33.30
2019-02-18T01:50:28.673Z,30.92
2019-02-18T01:52:57.197Z,30.55
2019-02-18T01:55:26.821Z,35.70
2019-02-18T01:57:55.317Z,35.48
2019-02-18T02:00:24.325Z,33.63
2019-02-18T02:02:52.842Z,35.25
2019-02-18T02:05:21.597Z,31.75
2019-02-18T02:07:56.434Z,34.65
2019-02-18T02:10:18.929Z,30.93
2019-02-18T02:12:47.937Z,30.92
2019-02-18T02:15:20.297Z,28.38
2019-02-18T02:17:48.821Z,31.20
2019-02-18T02:20:17.421Z,31.85
2019-02-18T02:22:46.253Z,33.95
2019-02-18T02:25:14.805Z,30.00
2019-02-18T02:27:43.369Z,31.55
2019-02-18T02:30:12.394Z,31.40
2019-02-18T02:32:41.194Z,31.07
2019-02-18T02:35:09.757Z,32.77
2019-02-18T02:37:38.555Z,31.62
2019-02-18T02:40:08.789Z,30.65
2019-02-18T02:42:37.721Z,28.07
2019-02-18T02:45:06.687Z,26.77
2019-02-18T02:47:35.171Z,26.10
2019-02-18T02:50:04.999Z,26.45
2019-02-18T02:52:33.473Z,25.50
2019-02-18T02:55:01.997Z,22.48
2019-02-18T02:57:30.585Z,22.70
2019-02-18T02:59:59.386Z,23.60
2019-02-18T03:02:27.869Z,22.70
2019-02-18T03:04:56.393Z,23.52
2019-02-18T03:07:24.960Z,23.73
2019-02-18T03:09:53.461Z,22.55
2019-02-18T03:12:21.943Z,25.00
2019-02-18T03:14:50.569Z,24.32
2019-02-18T03:17:19.053Z,24.80
2019-02-18T03:19:47.565Z,24.43
2019-02-18T03:22:16.312Z,23.60
2019-02-18T03:24:56.054Z,23.80
2019-02-18T03:27:24.553Z,21.95
2019-02-18T03:30:03.246Z,22.95
2019-02-18T03:32:35.814Z,23.83
2019-02-18T03:35:04.341Z,20.92
2019-02-18T03:37:33.106Z,20.92
2019-02-18T03:40:01.586Z,21.77
2019-02-18T03:42:30.337Z,21.27
2019-02-18T03:44:58.859Z,23.55
2019-02-18T03:47:27.608Z,24.18
2019-02-18T03:49:56.087Z,23.52
2019-02-18T03:52:24.592Z,24.67
2019-02-18T03:54:53.113Z,26.23
2019-02-18T03:57:21.666Z,23.90
2019-02-18T03:59:50.257Z,22.93
2019-02-18T04:02:18.816Z,23.18
2019-02-18T04:04:47.389Z,23.05
2019-02-18T04:07:15.877Z,21.47
2019-02-18T04:09:44.372Z,22.35
2019-02-18T04:12:13.308Z,21.90
2019-02-18T04:14:41.774Z,25.27
2019-02-18T04:17:10.308Z,23.00
2019-02-18T04:19:39.108Z,24.30
2019-02-18T04:22:07.893Z,24.75
2019-02-18T04:24:36.388Z,25.45
2019-02-18T04:27:04.880Z,24.95
2019-02-18T04:29:33.377Z,27.67
2019-02-18T04:32:01.920Z,29.13
2019-02-18T04:34:30.433Z,27.58
2019-02-18T04:36:59.460Z,27.40
2019-02-18T04:39:27.954Z,26.90
2019-02-18T04:41:56.476Z,25.27
2019-02-18T04:44:25.684Z,25.25
2019-02-18T04:46:54.753Z,23.70
2019-02-18T04:49:23.276Z,26.35
2019-02-18T04:51:51.752Z,23.42
2019-02-18T04:54:20.588Z,25.47
2019-02-18T04:56:49.076Z,23.30
2019-02-18T04:59:17.552Z,25.48
2019-02-18T05:01:46.056Z,25.27
2019-02-18T05:04:14.900Z,24.97
2019-02-18T05:06:43.361Z,25.55
2019-02-18T05:09:12.199Z,28.38
2019-02-18T05:11:40.716Z,27.67
2019-02-18T05:14:09.576Z,26.25
2019-02-18T05:16:38.100Z,26.75
2019-02-18T05:19:06.693Z,28.80
2019-02-18T05:21:35.225Z,29.07
2019-02-18T05:24:03.753Z,29.60
2019-02-18T05:26:32.368Z,28.27
2019-02-18T05:29:01.149Z,28.07
2019-02-18T05:31:29.700Z,26.10
2019-02-18T05:33:58.237Z,26.17
2019-02-18T05:36:27.295Z,26.33
2019-02-18T05:38:56.404Z,25.85
2019-02-18T05:41:25.088Z,26.77
2019-02-18T05:43:53.567Z,27.20
2019-02-18T05:46:22.202Z,26.52
2019-02-18T05:48:50.823Z,25.55
2019-02-18T05:51:19.741Z,25.03
2019-02-18T05:53:48.242Z,25.60
2019-02-18T05:56:16.760Z,27.58
2019-02-18T05:58:45.508Z,26.10
2019-02-18T06:01:14.339Z,27.22
2019-02-18T06:03:43.816Z,28.87
2019-02-18T06:06:12.328Z,24.50
2019-02-18T06:08:41.204Z,22.37
2019-02-18T06:11:10.061Z,22.43
2019-02-18T06:13:38.576Z,20.97
2019-02-18T06:16:07.083Z,21.95
2019-02-18T06:18:35.567Z,23.67
2019-02-18T06:21:05.252Z,23.60
2019-02-18T06:23:33.811Z,23.30
2019-02-18T06:26:02.591Z,22.87
2019-02-18T06:28:31.387Z,21.80
2019-02-18T06:31:00.029Z,18.82
2019-02-18T06:33:28.880Z,19.75
2019-02-18T06:35:57.703Z,23.27
2019-02-18T06:38:26.279Z,19.10
2019-02-18T06:40:55.256Z,20.15
2019-02-18T06:43:23.743Z,20.17
2019-02-18T06:46:02.343Z,20.80
2019-02-18T06:48:33.151Z,24.15
2019-02-18T06:51:01.646Z,23.43
2019-02-18T06:53:30.146Z,24.37
2019-02-18T06:55:58.710Z,21.48
2019-02-18T06:58:35.572Z,23.77
2019-02-18T07:01:10.339Z,25.55
2019-02-18T07:03:44.207Z,21.42
2019-02-18T07:06:26.684Z,22.47
2019-02-18T07:09:00.299Z,21.13
2019-02-18T07:11:35.431Z,23.07
2019-02-18T07:14:05.010Z,24.15
2019-02-18T07:16:35.311Z,22.27
2019-02-18T07:19:03.815Z,23.00
2019-02-18T07:21:32.591Z,23.90
2019-02-18T07:24:01.099Z,22.62
2019-02-18T07:26:32.110Z,23.67
2019-02-18T07:29:00.665Z,21.50
2019-02-18T07:31:29.455Z,22.30
2019-02-18T07:33:58.635Z,24.20
2019-02-18T07:36:27.344Z,24.92
2019-02-18T07:38:56.122Z,24.15
2019-02-18T07:41:24.599Z,25.08
2019-02-18T07:43:53.171Z,20.68
2019-02-18T07:46:21.867Z,22.27
2019-02-18T07:48:50.615Z,21.85
2019-02-18T07:51:19.158Z,23.22
2019-02-18T07:53:47.739Z,24.92
2019-02-18T07:56:16.316Z,25.45
2019-02-18T07:58:45.162Z,23.00
2019-02-18T08:01:14.102Z,21.65
2019-02-18T08:03:42.651Z,22.27
2019-02-18T08:06:11.239Z,19.83
2019-02-18T08:08:40.122Z,17.98
2019-02-18T08:11:09.147Z,9.37
2019-02-18T08:13:37.731Z,17.73
2019-02-18T08:16:06.823Z,18.92
2019-02-18T08:18:35.958Z,18.70
2019-02-18T08:21:05.158Z,19.00
2019-02-18T08:23:34.243Z,18.50
2019-02-18T08:26:04.275Z,11.85
2019-02-18T08:28:32.807Z,20.80
2019-02-18T08:31:01.503Z,19.37
2019-02-18T08:33:30.766Z,18.63
2019-02-18T08:35:59.692Z,20.15
2019-02-18T08:38:28.505Z,20.10
2019-02-18T08:40:57.239Z,17.00
2019-02-18T08:43:26.490Z,19.17
2019-02-18T08:45:55.628Z,21.17
2019-02-18T08:48:24.793Z,23.87
2019-02-18T08:50:53.274Z,22.17
2019-02-18T08:53:21.882Z,18.07
2019-02-18T08:55:50.463Z,22.15
2019-02-18T08:58:19.234Z,16.83
2019-02-18T09:00:47.954Z,21.00
2019-02-18T09:03:16.422Z,17.25
2019-02-18T09:05:45.350Z,18.95
2019-02-18T09:08:13.848Z,19.40
2019-02-18T09:10:43.482Z,19.07
2019-02-18T09:13:12.092Z,18.37
2019-02-18T09:15:40.930Z,18.43
2019-02-18T09:18:09.757Z,18.37
2019-02-18T09:20:38.374Z,16.73
2019-02-18T09:23:12.519Z,15.85
2019-02-18T09:25:44.970Z,18.50
2019-02-18T09:28:13.786Z,19.70
2019-02-18T09:30:44.006Z,16.80
2019-02-18T09:33:12.587Z,17.80
2019-02-18T09:35:41.826Z,15.53
2019-02-18T09:38:10.310Z,18.10
2019-02-18T09:40:44.608Z,18.30
2019-02-18T09:43:08.142Z,16.00
2019-02-18T09:45:36.950Z,19.52
2019-02-18T09:48:05.542Z,18.12
2019-02-18T09:50:34.556Z,16.87
2019-02-18T09:53:03.343Z,16.67
2019-02-18T09:55:32.114Z,15.80
2019-02-18T09:58:00.629Z,10.90
2019-02-18T10:00:29.542Z,16.87
2019-02-18T10:02:58.053Z,12.88
2019-02-18T10:05:26.710Z,16.27
2019-02-18T10:07:55.949Z,17.57
2019-02-18T10:10:24.427Z,16.07
2019-02-18T10:12:53.661Z,17.73
2019-02-18T10:15:22.399Z,16.73
2019-02-18T10:17:51.264Z,17.30
2019-02-18T10:20:20.076Z,17.47
2019-02-18T10:22:48.566Z,17.23
2019-02-18T10:25:17.506Z,16.57
2019-02-18T10:27:45.990Z,16.37
2019-02-18T10:30:14.619Z,17.40
2019-02-18T10:32:43.638Z,18.87
2019-02-18T10:35:12.385Z,15.70
2019-02-18T10:37:41.018Z,17.42
2019-02-18T10:40:10.734Z,17.45
2019-02-18T10:42:39.858Z,17.45
2019-02-18T10:45:09.989Z,16.77
2019-02-18T10:47:39.133Z,18.30
2019-02-18T10:50:08.866Z,18.42
2019-02-18T10:52:37.850Z,17.77
2019-02-18T10:55:07.006Z,18.70
2019-02-18T10:57:35.574Z,17.10
2019-02-18T11:00:08.373Z,16.02
2019-02-18T11:02:37.170Z,17.65
2019-02-18T11:10:04.933Z,16.20
2019-02-18T11:12:33.429Z,15.93
2019-02-18T11:15:02.246Z,16.23
2019-02-18T11:17:38.717Z,18.12
2019-02-18T11:19:59.298Z,17.02
2019-02-18T11:22:28.145Z,15.72
2019-02-18T11:24:56.716Z,15.93
2019-02-18T11:27:25.542Z,13.72
2019-02-18T11:29:54.021Z,16.40
2019-02-18T11:32:22.537Z,15.65
2019-02-18T11:34:51.081Z,16.55
2019-02-18T11:37:19.873Z,16.60
2019-02-18T11:39:48.705Z,16.95
2019-02-18T11:42:17.569Z,16.87
2019-02-18T11:44:46.105Z,16.82
2019-02-18T11:47:14.633Z,16.30
2019-02-18T11:49:43.649Z,16.73
2019-02-18T11:52:12.849Z,17.30
2019-02-18T11:54:41.562Z,17.87
2019-02-18T11:57:10.093Z,16.55
2019-02-18T11:59:38.721Z,16.45
2019-02-18T12:02:07.705Z,17.37
2019-02-18T12:04:36.261Z,14.63
2019-02-18T12:07:04.753Z,16.50
2019-02-18T12:09:33.269Z,16.20
2019-02-18T12:12:01.777Z,17.25
2019-02-18T12:14:30.437Z,16.90
2019-02-18T12:16:59.325Z,16.82
2019-02-18T12:19:27.866Z,17.77
2019-02-18T12:21:56.666Z,17.23
2019-02-18T12:24:25.648Z,16.87
2019-02-18T12:26:54.274Z,16.82
2019-02-18T12:29:26.614Z,17.32
2019-02-18T12:31:52.101Z,16.37
2019-02-18T12:34:20.577Z,17.42
2019-02-18T12:36:49.160Z,16.60
2019-02-18T12:39:17.937Z,16.57
2019-02-18T12:41:48.979Z,14.65
2019-02-18T12:44:15.329Z,15.08
2019-02-18T12:46:43.832Z,15.43
2019-02-18T12:49:12.425Z,16.40
2019-02-18T12:51:41.041Z,16.95
2019-02-18T12:54:09.962Z,13.45
2019-02-18T12:56:38.484Z,13.28
2019-02-18T12:59:07.045Z,14.23
2019-02-18T13:01:35.892Z,14.15
2019-02-18T13:04:04.681Z,12.63
2019-02-18T13:06:34.081Z,13.43
2019-02-18T13:09:02.667Z,12.33
2019-02-18T13:11:31.604Z,10.80
2019-02-18T13:14:00.440Z,9.85
2019-02-18T13:16:29.052Z,11.03
2019-02-18T13:18:57.842Z,12.28
2019-02-18T13:21:26.708Z,9.73
2019-02-18T13:23:55.312Z,9.93
2019-02-18T13:26:24.156Z,10.10
2019-02-18T13:28:52.636Z,9.78
2019-02-18T13:31:21.396Z,9.58
2019-02-18T13:33:49.876Z,8.98
2019-02-18T13:36:18.412Z,8.05
2019-02-18T13:38:46.940Z,9.48
2019-02-18T13:41:15.771Z,9.53
2019-02-18T13:43:44.292Z,11.90
2019-02-18T13:46:12.894Z,11.45
2019-02-18T13:48:41.380Z,12.03
2019-02-18T13:51:09.980Z,11.33
2019-02-18T13:53:38.680Z,11.80
2019-02-18T13:56:07.569Z,12.50
2019-02-18T13:58:36.159Z,12.78
2019-02-18T14:01:05.536Z,12.58
2019-02-18T14:03:34.228Z,12.58
2019-02-18T14:06:02.793Z,13.32
2019-02-18T14:08:31.332Z,12.85
2019-02-18T14:10:59.904Z,13.70
2019-02-18T14:13:28.424Z,14.18
2019-02-18T14:15:57.476Z,13.10
2019-02-18T14:18:26.233Z,13.30
2019-02-18T14:20:55.458Z,13.72
2019-02-18T14:23:24.046Z,13.85
2019-02-18T14:25:52.941Z,12.75
2019-02-18T14:28:21.580Z,13.13
2019-02-18T14:30:50.229Z,12.40
2019-02-18T14:33:19.049Z,11.85
2019-02-18T14:35:47.573Z,11.68
2019-02-18T14:38:16.165Z,12.07
2019-02-18T14:40:44.841Z,11.75
2019-02-18T14:43:13.852Z,11.95
2019-02-18T14:45:42.892Z,12.37
2019-02-18T14:48:11.673Z,11.90
2019-02-18T14:50:40.310Z,11.33
2019-02-18T14:53:09.056Z,11.30
2019-02-18T14:55:38.068Z,11.30
2019-02-18T14:58:07.068Z,11.40
2019-02-18T15:00:35.754Z,11.40
2019-02-18T15:03:04.900Z,11.48
2019-02-18T15:05:33.736Z,11.80
2019-02-18T15:08:02.552Z,11.22
2019-02-18T15:10:31.105Z,11.10
2019-02-18T15:12:59.864Z,10.55
2019-02-18T15:15:28.877Z,10.38
2019-02-18T15:17:57.480Z,10.35
2019-02-18T15:20:26.076Z,10.10
2019-02-18T15:22:54.788Z,10.85
2019-02-18T15:25:23.580Z,10.03
2019-02-18T15:27:52.216Z,9.80
2019-02-18T15:30:21.056Z,10.03
2019-02-18T15:32:49.732Z,11.20
2019-02-18T15:38:01.300Z,10.88
2019-02-18T15:40:30.185Z,10.20
2019-02-18T15:42:58.688Z,10.48
2019-02-18T15:45:27.540Z,11.55
2019-02-18T15:48:01.533Z,14.18
2019-02-18T15:50:24.840Z,17.50
2019-02-18T15:52:53.532Z,21.17
2019-02-18T15:55:22.291Z,20.57
2019-02-18T15:57:50.919Z,18.07
2019-02-18T16:00:21.326Z,18.02
2019-02-18T16:02:50.251Z,15.68
2019-02-18T16:05:18.931Z,15.60
2019-02-18T16:07:47.839Z,14.35
2019-02-18T16:10:16.519Z,12.80
2019-02-18T16:12:50.819Z,13.68
2019-02-18T16:15:14.216Z,14.00
2019-02-18T16:17:42.847Z,12.75
2019-02-18T16:20:11.887Z,13.96
2019-02-18T16:22:40.584Z,14.33
2019-02-18T16:25:12.199Z,14.15
2019-02-18T16:27:40.787Z,16.75
2019-02-18T16:30:12.331Z,18.00
2019-02-18T16:32:41.067Z,23.22
2019-02-18T16:35:09.862Z,24.35
2019-02-18T16:37:38.523Z,25.15
2019-02-18T16:40:09.381Z,21.27
2019-02-18T16:42:38.291Z,22.50
2019-02-18T16:45:07.939Z,21.97
2019-02-18T16:47:36.661Z,20.62
2019-02-18T16:50:05.519Z,23.10
2019-02-18T16:52:34.095Z,22.82
2019-02-18T16:55:02.767Z,24.75
2019-02-18T16:57:31.489Z,23.60
2019-02-18T17:00:01.113Z,24.52
2019-02-18T17:02:29.718Z,21.77
2019-02-18T17:04:58.270Z,23.85
2019-02-18T17:07:26.855Z,24.02
2019-02-18T17:09:55.506Z,20.48
2019-02-18T17:12:24.139Z,21.23
2019-02-18T17:14:52.814Z,20.30
2019-02-18T17:17:21.946Z,21.00
2019-02-18T17:19:50.582Z,22.13
2019-02-18T17:22:19.170Z,22.20
2019-02-18T17:24:48.050Z,23.40
2019-02-18T17:27:16.602Z,23.20
2019-02-18T17:29:46.623Z,21.85
2019-02-18T17:32:13.890Z,22.40
2019-02-18T17:34:42.614Z,22.32
2019-02-18T17:37:11.103Z,19.20
2019-02-18T17:39:39.674Z,20.12
2019-02-18T17:42:08.222Z,20.57
2019-02-18T17:44:37.490Z,20.02
2019-02-18T17:47:06.030Z,20.85
2019-02-18T17:49:34.574Z,19.98
2019-02-18T17:52:03.157Z,20.25
2019-02-18T17:54:31.694Z,19.98
2019-02-18T17:57:00.330Z,20.05
2019-02-18T17:59:29.218Z,19.73
2019-02-18T18:01:57.746Z,20.37
2019-02-18T18:04:27.030Z,20.48
2019-02-18T18:06:55.590Z,20.72
2019-02-18T18:09:24.134Z,21.17
2019-02-18T18:11:52.714Z,22.13
2019-02-18T18:14:21.698Z,21.57
2019-02-18T18:16:50.323Z,22.25
2019-02-18T18:19:19.578Z,21.77
2019-02-18T18:21:48.150Z,21.10
2019-02-18T18:24:16.682Z,21.00
2019-02-18T18:26:45.243Z,22.60
2019-02-18T18:29:13.734Z,23.80
2019-02-18T18:31:42.856Z,22.25
2019-02-18T18:34:11.962Z,23.90
2019-02-18T18:36:40.846Z,22.20
2019-02-18T18:39:09.694Z,22.07
2019-02-18T18:41:38.202Z,21.23
2019-02-18T18:44:06.702Z,22.50
2019-02-18T18:46:35.196Z,22.70
2019-02-18T18:49:03.701Z,23.18
2019-02-18T18:51:32.250Z,21.85
2019-02-18T18:54:01.118Z,22.58
2019-02-18T18:56:29.847Z,21.62
2019-02-18T18:58:58.395Z,23.75
2019-02-18T19:01:27.332Z,24.87
2019-02-18T19:03:56.159Z,26.02
2019-02-18T19:06:24.950Z,27.40
2019-02-18T19:08:53.466Z,27.37
2019-02-18T19:11:22.382Z,27.07
2019-02-18T19:13:51.046Z,28.05
2019-02-18T19:16:19.582Z,26.35
2019-02-18T19:18:48.127Z,26.10
2019-02-18T19:21:16.675Z,25.80
2019-02-18T19:23:45.315Z,27.67
2019-02-18T19:26:13.877Z,27.40
2019-02-18T19:28:42.491Z,28.90
2019-02-18T19:31:11.208Z,30.30
2019-02-18T19:33:40.399Z,29.15
2019-02-18T19:36:09.216Z,29.02
2019-02-18T19:38:37.790Z,28.57
2019-02-18T19:41:06.414Z,28.57
2019-02-18T19:43:35.138Z,27.07
2019-02-18T19:46:03.687Z,27.62
2019-02-18T19:48:32.527Z,28.50
2019-02-18T19:51:01.297Z,27.70
2019-02-18T19:53:29.811Z,27.77
2019-02-18T19:55:58.386Z,26.42
2019-02-18T19:58:26.875Z,27.52
2019-02-18T20:00:55.471Z,27.48
2019-02-18T20:03:24.006Z,26.80
2019-02-18T20:05:52.879Z,27.67
2019-02-18T20:08:21.618Z,27.85
2019-02-18T20:10:50.229Z,26.97
2019-02-18T20:13:18.810Z,24.73
2019-02-18T20:15:47.494Z,28.25
2019-02-18T20:18:16.214Z,28.37
2019-02-18T20:20:44.750Z,27.70
2019-02-18T20:23:13.399Z,29.40
2019-02-18T20:25:42.598Z,27.85
2019-02-18T20:28:11.251Z,29.60
2019-02-18T20:30:39.914Z,28.57
2019-02-18T20:33:08.530Z,26.62
2019-02-18T20:35:37.350Z,29.82
2019-02-18T20:38:05.962Z,30.45
2019-02-18T20:40:34.699Z,29.67
2019-02-18T20:43:03.297Z,29.95
2019-02-18T20:45:32.150Z,29.67
2019-02-18T20:48:01.076Z,29.60
2019-02-18T20:50:29.885Z,30.62
2019-02-18T20:52:58.885Z,31.00
2019-02-18T20:55:27.774Z,30.60
2019-02-18T20:57:56.573Z,30.92
2019-02-18T21:00:25.482Z,32.30
2019-02-18T21:02:54.110Z,31.55
2019-02-18T21:05:22.854Z,31.53
2019-02-18T21:07:51.806Z,31.60
2019-02-18T21:10:20.664Z,32.40
2019-02-18T21:12:49.638Z,33.35
2019-02-18T21:15:20.122Z,32.63
2019-02-18T21:17:48.949Z,33.53
2019-02-18T21:20:18.105Z,31.68
2019-02-18T21:22:46.870Z,33.48
2019-02-18T21:25:15.540Z,33.18
2019-02-18T21:27:44.112Z,30.23
2019-02-18T21:30:13.200Z,33.98
2019-02-18T21:32:42.410Z,32.58
2019-02-18T21:35:11.075Z,33.53
2019-02-18T21:37:39.675Z,35.43
2019-02-18T21:40:08.900Z,34.60
2019-02-18T21:42:37.486Z,35.10
2019-02-18T21:45:06.414Z,36.00
2019-02-18T21:47:35.378Z,34.63
2019-02-18T21:50:05.202Z,37.17
2019-02-18T21:52:34.042Z,34.90
2019-02-18T21:55:02.754Z,36.30
2019-02-18T21:57:31.422Z,36.48
2019-02-18T22:00:00.006Z,36.80
2019-02-18T22:02:28.622Z,35.78
2019-02-18T22:04:58.906Z,35.60
2019-02-18T22:07:27.657Z,36.20
2019-02-18T22:09:56.494Z,34.63
2019-02-18T22:12:25.050Z,33.25
2019-02-18T22:14:53.734Z,35.13
2019-02-18T22:17:22.794Z,36.23
2019-02-18T22:19:51.466Z,33.90
2019-02-18T22:22:20.618Z,36.68
2019-02-18T22:24:49.266Z,33.95
2019-02-18T22:27:18.005Z,33.42
2019-02-18T22:29:46.574Z,36.25
2019-02-18T22:32:15.177Z,34.65
2019-02-18T22:34:43.990Z,35.30
2019-02-18T22:37:12.702Z,36.63
2019-02-18T22:39:41.297Z,34.65
2019-02-18T22:42:09.890Z,34.78
2019-02-18T22:44:41.966Z,33.33
2019-02-18T22:47:07.525Z,35.17
2019-02-18T22:49:36.237Z,36.28
2019-02-18T22:52:04.769Z,33.48
2019-02-18T22:54:33.577Z,33.47
2019-02-18T22:57:02.329Z,31.80
2019-02-18T22:59:30.878Z,32.78
2019-02-18T23:01:59.447Z,33.92
2019-02-18T23:04:28.277Z,36.05
2019-02-18T23:06:59.058Z,33.53
2019-02-18T23:09:28.045Z,34.88
2019-02-18T23:11:56.549Z,33.38
2019-02-18T23:14:26.049Z,34.08
2019-02-18T23:16:54.973Z,34.10
2019-02-18T23:19:23.477Z,35.05
2019-02-18T23:21:52.382Z,33.67
2019-02-18T23:24:20.886Z,34.40
2019-02-18T23:26:49.958Z,34.10
2019-02-18T23:29:18.509Z,36.43
2019-02-18T23:31:47.109Z,34.85
2019-02-18T23:34:15.633Z,34.57
2019-02-18T23:36:44.210Z,34.85
2019-02-18T23:39:13.036Z,34.30
2019-02-18T23:41:41.569Z,34.70
2019-02-18T23:44:10.157Z,35.83
2019-02-18T23:46:39.021Z,33.63
2019-02-18T23:49:07.561Z,34.75
2019-02-18T23:51:36.125Z,34.92
2019-02-18T23:54:05.251Z,34.67
2019-02-18T23:56:33.754Z,34.78
2019-02-18T23:59:02.543Z,36.28
